PENO2: Grand Lake O' The Cherokees, Pensacola Dm

Data processed at Fri Mar 09 2018 23:33


All information presented herein is the property of the government of the United States of America and may be revised or deleted at any time without prior notice.
Dissemination of this information without the expressed written consent of the Public Affairs Office, Tulsa District U.S. Army Corps of Engineers is strictly prohibited.
These data are gathered electronically and, as presented, have not undergone any form of quality control. These data are not guaranteed to be valid or correct.
Go to home page.
Go to station list.

Upstream stations:

Downstream station:
Previous Day
Next Day
Current Day
    
SHEF ID:       PENO2     Lake O' the Cherokees at Langley
STATION TYPE:  RESERVOIR

               PRECIP ELEVATION   STORAGE    INFLOW   RELEASE  AIR-TEMP  WIND-DIRWIND-SPEED REL-HUMID SOLAR-RAD   VOLTAGE  BAT-LOAD
                   in        ft     ac-ft       cfs       cfs         F       deg       mph         %      W/m2      volt      volt
              Ccp-Rev   Ccp-Rev   Ccp-Rev  Regi-Rev  Regi-Rev   Ccp-Rev   Ccp-Rev   Ccp-Rev   Ccp-Rev   Ccp-Rev   Ccp-Rev   Ccp-Rev
(US/Central)
03/07 00:00      0.00    744.14   1479710      6870     11255     35.20    304.83      9.05     57.83      0.00     12.56     12.25
03/07 01:00      0.00    744.11   1478465      4333     11587     35.38    309.86      9.69     60.80      0.00     12.55     12.25
03/07 02:00      0.00    744.11   1478465      6586     11262     33.01    267.39      6.23     60.86      0.00     12.55     12.25
03/07 03:00      0.00    744.06   1476390      2520     11488     31.87    265.72      6.62     64.53      0.00     12.54     12.25
03/07 04:00      0.00    744.06   1476390      2787     11268     33.17    294.52      8.24     65.04      0.00     13.13     12.25
03/07 05:00      0.00    744.05   1475975      4082     11487     33.33    292.75      6.63     64.23      0.00     13.51     13.13
03/07 06:00      0.00    744.02   1474730      5356     11267     33.15    284.59      6.07     65.23      0.00     13.52     13.05
03/07 07:00      0.00    744.01   1474315      6384     11497     33.44    291.09      7.42     64.81      0.00     12.97     12.97
03/07 08:00      0.00    744.00   1473900      6400     11392     33.85    320.80     11.18     64.33     35.65     12.87     12.57
03/07 09:00      0.00    744.01   1474315      6150     11383     34.20    320.08     11.18     62.94    108.69     12.82     12.57
03/07 10:00      0.00    743.99   1473491      4872     11388     34.88    315.24      8.46     59.96    337.83     12.78     12.49
03/07 11:00      0.00    743.96   1472264      3615     11275     36.79    292.80      8.57     54.04    609.43     12.75     12.41
03/07 12:00      0.00    743.95   1471855       353     11387     38.88    286.77      7.98     48.43    765.52     12.71     12.41
03/07 13:00      0.00    743.93   1471037        87     11382     41.14    288.28      9.46     45.28    767.20     12.67     12.41
03/07 14:00      0.00    743.91   1470219        76     11498     43.48    272.07      9.53     40.10    755.58     12.64     12.33
03/07 15:00      0.00    743.89   1469401        63     11390     46.13    267.92      9.46     36.72    654.95     12.61     12.33
03/07 16:00      0.00    743.90   1469810        48     11284     48.47    269.36      9.10     32.22    503.44     12.60     12.33
03/07 17:00      0.00    743.90   1469810        32     11395     50.04    286.23      9.16     26.18    313.27     12.59     12.25
03/07 18:00      0.00    743.89   1469401        16     11506     49.87    299.02     10.06     23.57     94.52     12.59     12.25
03/07 19:00      0.00    743.88   1468992        11     11286     48.04    297.64      5.87     25.68      0.00     12.58     12.25
03/07 20:00      0.00    743.87   1468583         8     11512     46.18    291.47      3.31     28.00      0.00     12.58     12.25
03/07 21:00      0.00    743.85   1467765         6     11283     44.22    170.06      0.95     35.05      0.00     12.57     12.25
03/07 22:00      0.00    743.82   1466538         6     11512     40.10    109.21      1.61     54.29      0.00     12.57     12.25
03/07 23:00      0.00    743.81   1466129         4     11288     37.94    121.07      1.80     56.31      0.00     12.56     12.25